sensor_id;sensor_type;location;lat;lon;timestamp;P1;durP1;ratioP1;P2;durP2;ratioP2
25525;SDS011;13424;48.424;11.258;2024-02-14T00:01:56;11.07;;;5.72;;
25525;SDS011;13424;48.424;11.258;2024-02-14T00:08:12;12.53;;;5.77;;
25525;SDS011;13424;48.424;11.258;2024-02-14T00:10:40;8.63;;;5.55;;
25525;SDS011;13424;48.424;11.258;2024-02-14T00:13:06;9.27;;;5.25;;
25525;SDS011;13424;48.424;11.258;2024-02-14T00:15:33;7.88;;;5.85;;
25525;SDS011;13424;48.424;11.258;2024-02-14T00:17:59;11.50;;;6.55;;
25525;SDS011;13424;48.424;11.258;2024-02-14T00:20:26;9.18;;;5.15;;
25525;SDS011;13424;48.424;11.258;2024-02-14T00:22:52;11.90;;;5.80;;
25525;SDS011;13424;48.424;11.258;2024-02-14T00:25:24;9.75;;;4.95;;
25525;SDS011;13424;48.424;11.258;2024-02-14T00:27:50;15.38;;;5.50;;
25525;SDS011;13424;48.424;11.258;2024-02-14T00:30:16;10.82;;;4.85;;
25525;SDS011;13424;48.424;11.258;2024-02-14T00:32:42;9.48;;;5.68;;
25525;SDS011;13424;48.424;11.258;2024-02-14T00:35:08;5.60;;;4.47;;
25525;SDS011;13424;48.424;11.258;2024-02-14T00:37:34;7.13;;;5.53;;
25525;SDS011;13424;48.424;11.258;2024-02-14T00:40:02;8.45;;;5.07;;
25525;SDS011;13424;48.424;11.258;2024-02-14T00:42:29;7.10;;;5.05;;
25525;SDS011;13424;48.424;11.258;2024-02-14T00:44:55;9.32;;;4.70;;
25525;SDS011;13424;48.424;11.258;2024-02-14T00:47:21;9.75;;;5.40;;
25525;SDS011;13424;48.424;11.258;2024-02-14T00:49:47;6.70;;;5.20;;
25525;SDS011;13424;48.424;11.258;2024-02-14T00:52:13;10.15;;;5.35;;
25525;SDS011;13424;48.424;11.258;2024-02-14T00:54:41;9.13;;;5.70;;
25525;SDS011;13424;48.424;11.258;2024-02-14T00:57:07;9.07;;;5.20;;
25525;SDS011;13424;48.424;11.258;2024-02-14T00:59:33;5.18;;;4.55;;
25525;SDS011;13424;48.424;11.258;2024-02-14T01:01:59;9.60;;;6.05;;
25525;SDS011;13424;48.424;11.258;2024-02-14T01:04:25;11.32;;;6.15;;
25525;SDS011;13424;48.424;11.258;2024-02-14T01:06:51;11.07;;;5.40;;
25525;SDS011;13424;48.424;11.258;2024-02-14T01:09:18;7.32;;;5.35;;
25525;SDS011;13424;48.424;11.258;2024-02-14T01:11:44;8.65;;;5.25;;
25525;SDS011;13424;48.424;11.258;2024-02-14T01:14:11;8.45;;;5.00;;
25525;SDS011;13424;48.424;11.258;2024-02-14T01:16:45;9.40;;;5.70;;
25525;SDS011;13424;48.424;11.258;2024-02-14T01:19:11;7.93;;;5.07;;
25525;SDS011;13424;48.424;11.258;2024-02-14T01:21:37;7.25;;;4.38;;
25525;SDS011;13424;48.424;11.258;2024-02-14T01:24:04;6.22;;;4.95;;
25525;SDS011;13424;48.424;11.258;2024-02-14T01:26:36;9.63;;;6.00;;
25525;SDS011;13424;48.424;11.258;2024-02-14T01:29:07;6.55;;;4.80;;
25525;SDS011;13424;48.424;11.258;2024-02-14T01:31:34;6.90;;;4.68;;
25525;SDS011;13424;48.424;11.258;2024-02-14T01:34:00;9.02;;;5.20;;
25525;SDS011;13424;48.424;11.258;2024-02-14T01:36:29;6.70;;;4.32;;
25525;SDS011;13424;48.424;11.258;2024-02-14T01:38:56;9.63;;;4.88;;
25525;SDS011;13424;48.424;11.258;2024-02-14T01:41:22;8.80;;;4.68;;
25525;SDS011;13424;48.424;11.258;2024-02-14T01:43:49;13.00;;;5.20;;
25525;SDS011;13424;48.424;11.258;2024-02-14T01:46:15;12.00;;;5.53;;
25525;SDS011;13424;48.424;11.258;2024-02-14T01:48:41;7.68;;;5.05;;
25525;SDS011;13424;48.424;11.258;2024-02-14T01:51:08;5.57;;;4.32;;
25525;SDS011;13424;48.424;11.258;2024-02-14T01:57:38;9.05;;;5.20;;
25525;SDS011;13424;48.424;11.258;2024-02-14T02:00:06;7.97;;;5.38;;
25525;SDS011;13424;48.424;11.258;2024-02-14T02:02:37;9.05;;;4.93;;
25525;SDS011;13424;48.424;11.258;2024-02-14T02:05:07;10.13;;;5.43;;
25525;SDS011;13424;48.424;11.258;2024-02-14T02:11:02;8.10;;;5.20;;
25525;SDS011;13424;48.424;11.258;2024-02-14T02:13:28;9.75;;;5.25;;
25525;SDS011;13424;48.424;11.258;2024-02-14T02:15:54;6.15;;;5.00;;
25525;SDS011;13424;48.424;11.258;2024-02-14T02:18:20;7.88;;;4.60;;
25525;SDS011;13424;48.424;11.258;2024-02-14T02:20:46;8.68;;;5.63;;
25525;SDS011;13424;48.424;11.258;2024-02-14T02:23:13;9.38;;;6.13;;
25525;SDS011;13424;48.424;11.258;2024-02-14T02:25:43;6.10;;;4.45;;
25525;SDS011;13424;48.424;11.258;2024-02-14T02:28:09;6.38;;;4.57;;
25525;SDS011;13424;48.424;11.258;2024-02-14T02:30:36;7.97;;;5.18;;
25525;SDS011;13424;48.424;11.258;2024-02-14T02:33:03;8.18;;;4.85;;
25525;SDS011;13424;48.424;11.258;2024-02-14T02:35:30;6.80;;;4.65;;
25525;SDS011;13424;48.424;11.258;2024-02-14T02:37:56;10.32;;;5.38;;
25525;SDS011;13424;48.424;11.258;2024-02-14T02:40:24;9.48;;;4.82;;
25525;SDS011;13424;48.424;11.258;2024-02-14T02:42:52;5.45;;;4.55;;
25525;SDS011;13424;48.424;11.258;2024-02-14T02:45:19;6.35;;;4.40;;
25525;SDS011;13424;48.424;11.258;2024-02-14T02:47:46;7.30;;;4.40;;
25525;SDS011;13424;48.424;11.258;2024-02-14T02:50:13;9.68;;;4.72;;
25525;SDS011;13424;48.424;11.258;2024-02-14T02:52:39;8.10;;;4.15;;
25525;SDS011;13424;48.424;11.258;2024-02-14T02:55:07;4.82;;;4.22;;
25525;SDS011;13424;48.424;11.258;2024-02-14T02:57:33;6.70;;;4.50;;
25525;SDS011;13424;48.424;11.258;2024-02-14T03:00:03;7.65;;;4.65;;
25525;SDS011;13424;48.424;11.258;2024-02-14T03:02:38;8.93;;;4.70;;
25525;SDS011;13424;48.424;11.258;2024-02-14T03:05:08;7.77;;;4.93;;
25525;SDS011;13424;48.424;11.258;2024-02-14T03:07:36;7.30;;;5.13;;
25525;SDS011;13424;48.424;11.258;2024-02-14T03:10:03;9.10;;;4.95;;
25525;SDS011;13424;48.424;11.258;2024-02-14T03:12:29;6.55;;;4.18;;
25525;SDS011;13424;48.424;11.258;2024-02-14T03:14:57;9.25;;;4.88;;
25525;SDS011;13424;48.424;11.258;2024-02-14T03:17:25;8.07;;;4.63;;
25525;SDS011;13424;48.424;11.258;2024-02-14T03:19:54;10.68;;;4.60;;
25525;SDS011;13424;48.424;11.258;2024-02-14T03:26:47;5.32;;;4.20;;
25525;SDS011;13424;48.424;11.258;2024-02-14T03:29:16;6.88;;;4.55;;
25525;SDS011;13424;48.424;11.258;2024-02-14T03:31:44;6.05;;;3.80;;
25525;SDS011;13424;48.424;11.258;2024-02-14T03:34:12;9.65;;;4.47;;
25525;SDS011;13424;48.424;11.258;2024-02-14T03:36:38;4.30;;;3.50;;
25525;SDS011;13424;48.424;11.258;2024-02-14T03:39:04;6.63;;;3.80;;
25525;SDS011;13424;48.424;11.258;2024-02-14T03:41:32;7.43;;;4.15;;
25525;SDS011;13424;48.424;11.258;2024-02-14T03:43:58;9.23;;;4.47;;
25525;SDS011;13424;48.424;11.258;2024-02-14T03:46:26;13.20;;;5.57;;
25525;SDS011;13424;48.424;11.258;2024-02-14T03:48:54;7.50;;;4.72;;
25525;SDS011;13424;48.424;11.258;2024-02-14T03:51:20;8.02;;;4.57;;
25525;SDS011;13424;48.424;11.258;2024-02-14T03:53:50;5.38;;;4.45;;
25525;SDS011;13424;48.424;11.258;2024-02-14T03:56:16;9.65;;;5.50;;
25525;SDS011;13424;48.424;11.258;2024-02-14T03:58:42;10.77;;;6.60;;
25525;SDS011;13424;48.424;11.258;2024-02-14T04:01:08;22.23;;;9.88;;
25525;SDS011;13424;48.424;11.258;2024-02-14T04:03:34;16.58;;;8.07;;
25525;SDS011;13424;48.424;11.258;2024-02-14T04:06:01;11.85;;;7.18;;
25525;SDS011;13424;48.424;11.258;2024-02-14T04:08:27;10.75;;;6.38;;
25525;SDS011;13424;48.424;11.258;2024-02-14T04:10:55;7.32;;;5.32;;
25525;SDS011;13424;48.424;11.258;2024-02-14T04:13:21;11.25;;;5.15;;
25525;SDS011;13424;48.424;11.258;2024-02-14T04:19:03;11.93;;;4.85;;
25525;SDS011;13424;48.424;11.258;2024-02-14T04:21:29;5.63;;;4.72;;
25525;SDS011;13424;48.424;11.258;2024-02-14T04:23:56;5.60;;;4.25;;
25525;SDS011;13424;48.424;11.258;2024-02-14T04:26:22;6.95;;;5.07;;
25525;SDS011;13424;48.424;11.258;2024-02-14T04:28:48;5.90;;;4.70;;
25525;SDS011;13424;48.424;11.258;2024-02-14T04:31:15;8.57;;;4.55;;
25525;SDS011;13424;48.424;11.258;2024-02-14T04:33:41;6.82;;;3.80;;
25525;SDS011;13424;48.424;11.258;2024-02-14T04:36:07;7.78;;;4.60;;
25525;SDS011;13424;48.424;11.258;2024-02-14T04:38:33;6.35;;;3.47;;
25525;SDS011;13424;48.424;11.258;2024-02-14T04:40:59;5.63;;;3.58;;
25525;SDS011;13424;48.424;11.258;2024-02-14T04:43:25;6.50;;;3.85;;
25525;SDS011;13424;48.424;11.258;2024-02-14T04:45:52;7.40;;;3.58;;
25525;SDS011;13424;48.424;11.258;2024-02-14T04:48:19;4.43;;;3.35;;
25525;SDS011;13424;48.424;11.258;2024-02-14T04:50:45;4.50;;;3.50;;
25525;SDS011;13424;48.424;11.258;2024-02-14T04:53:11;5.47;;;3.35;;
25525;SDS011;13424;48.424;11.258;2024-02-14T04:55:37;4.82;;;3.42;;
25525;SDS011;13424;48.424;11.258;2024-02-14T04:58:03;6.13;;;3.75;;
25525;SDS011;13424;48.424;11.258;2024-02-14T05:00:30;5.63;;;4.22;;
25525;SDS011;13424;48.424;11.258;2024-02-14T05:02:56;6.80;;;3.40;;
25525;SDS011;13424;48.424;11.258;2024-02-14T05:05:23;5.88;;;3.05;;
25525;SDS011;13424;48.424;11.258;2024-02-14T05:07:51;4.35;;;3.00;;
25525;SDS011;13424;48.424;11.258;2024-02-14T05:10:20;6.90;;;3.50;;
25525;SDS011;13424;48.424;11.258;2024-02-14T05:12:46;6.88;;;3.00;;
25525;SDS011;13424;48.424;11.258;2024-02-14T05:15:12;7.65;;;3.70;;
25525;SDS011;13424;48.424;11.258;2024-02-14T05:17:42;5.00;;;3.70;;
25525;SDS011;13424;48.424;11.258;2024-02-14T05:20:12;7.53;;;5.13;;
25525;SDS011;13424;48.424;11.258;2024-02-14T05:22:38;5.55;;;3.20;;
25525;SDS011;13424;48.424;11.258;2024-02-14T05:25:05;5.60;;;3.05;;
25525;SDS011;13424;48.424;11.258;2024-02-14T05:27:34;5.18;;;3.25;;
25525;SDS011;13424;48.424;11.258;2024-02-14T05:30:04;6.05;;;2.83;;
25525;SDS011;13424;48.424;11.258;2024-02-14T05:32:33;7.30;;;2.55;;
25525;SDS011;13424;48.424;11.258;2024-02-14T05:35:00;10.05;;;3.22;;
25525;SDS011;13424;48.424;11.258;2024-02-14T05:37:27;5.40;;;2.88;;
25525;SDS011;13424;48.424;11.258;2024-02-14T05:39:54;5.13;;;2.78;;
25525;SDS011;13424;48.424;11.258;2024-02-14T05:42:20;5.18;;;2.83;;
25525;SDS011;13424;48.424;11.258;2024-02-14T05:44:47;3.95;;;2.95;;
25525;SDS011;13424;48.424;11.258;2024-02-14T05:47:14;4.47;;;2.70;;
25525;SDS011;13424;48.424;11.258;2024-02-14T05:49:40;5.13;;;2.90;;
25525;SDS011;13424;48.424;11.258;2024-02-14T05:52:07;4.15;;;2.70;;
25525;SDS011;13424;48.424;11.258;2024-02-14T05:54:34;6.55;;;3.00;;
25525;SDS011;13424;48.424;11.258;2024-02-14T05:57:00;3.70;;;2.63;;
25525;SDS011;13424;48.424;11.258;2024-02-14T05:59:29;3.05;;;2.72;;
25525;SDS011;13424;48.424;11.258;2024-02-14T06:01:56;3.97;;;2.80;;
25525;SDS011;13424;48.424;11.258;2024-02-14T06:04:22;3.58;;;2.60;;
25525;SDS011;13424;48.424;11.258;2024-02-14T06:06:48;5.20;;;3.08;;
25525;SDS011;13424;48.424;11.258;2024-02-14T06:09:14;8.65;;;3.20;;
25525;SDS011;13424;48.424;11.258;2024-02-14T06:11:41;7.03;;;3.00;;
25525;SDS011;13424;48.424;11.258;2024-02-14T06:14:08;6.70;;;3.20;;
25525;SDS011;13424;48.424;11.258;2024-02-14T06:16:34;3.70;;;2.97;;
25525;SDS011;13424;48.424;11.258;2024-02-14T06:19:01;10.43;;;2.97;;
25525;SDS011;13424;48.424;11.258;2024-02-14T06:21:30;7.53;;;3.28;;
25525;SDS011;13424;48.424;11.258;2024-02-14T06:23:56;6.88;;;3.47;;
25525;SDS011;13424;48.424;11.258;2024-02-14T06:26:24;5.97;;;3.38;;
25525;SDS011;13424;48.424;11.258;2024-02-14T06:28:50;6.43;;;3.00;;
25525;SDS011;13424;48.424;11.258;2024-02-14T06:31:20;8.98;;;3.08;;
25525;SDS011;13424;48.424;11.258;2024-02-14T06:33:47;4.38;;;3.28;;
25525;SDS011;13424;48.424;11.258;2024-02-14T06:36:13;5.43;;;3.15;;
25525;SDS011;13424;48.424;11.258;2024-02-14T06:38:39;8.35;;;4.10;;
25525;SDS011;13424;48.424;11.258;2024-02-14T06:41:06;5.07;;;3.83;;
25525;SDS011;13424;48.424;11.258;2024-02-14T06:43:32;7.22;;;4.45;;
25525;SDS011;13424;48.424;11.258;2024-02-14T06:45:58;6.72;;;3.90;;
25525;SDS011;13424;48.424;11.258;2024-02-14T06:48:24;4.75;;;3.80;;
25525;SDS011;13424;48.424;11.258;2024-02-14T06:50:50;7.18;;;4.22;;
25525;SDS011;13424;48.424;11.258;2024-02-14T06:53:17;7.47;;;4.25;;
25525;SDS011;13424;48.424;11.258;2024-02-14T06:55:43;6.68;;;3.38;;
25525;SDS011;13424;48.424;11.258;2024-02-14T06:58:09;5.82;;;3.00;;
25525;SDS011;13424;48.424;11.258;2024-02-14T07:00:47;4.82;;;2.92;;
25525;SDS011;13424;48.424;11.258;2024-02-14T07:03:13;3.72;;;2.55;;
25525;SDS011;13424;48.424;11.258;2024-02-14T07:05:39;2.60;;;2.40;;
25525;SDS011;13424;48.424;11.258;2024-02-14T07:08:07;7.43;;;2.75;;
25525;SDS011;13424;48.424;11.258;2024-02-14T07:11:04;5.55;;;2.70;;
25525;SDS011;13424;48.424;11.258;2024-02-14T07:13:30;4.60;;;2.75;;
25525;SDS011;13424;48.424;11.258;2024-02-14T07:16:02;4.30;;;2.83;;
25525;SDS011;13424;48.424;11.258;2024-02-14T07:18:29;4.80;;;2.75;;
25525;SDS011;13424;48.424;11.258;2024-02-14T07:20:55;7.03;;;2.95;;
25525;SDS011;13424;48.424;11.258;2024-02-14T07:23:21;5.50;;;3.35;;
25525;SDS011;13424;48.424;11.258;2024-02-14T07:25:47;7.07;;;3.22;;
25525;SDS011;13424;48.424;11.258;2024-02-14T07:28:13;3.20;;;2.60;;
25525;SDS011;13424;48.424;11.258;2024-02-14T07:30:39;5.43;;;3.15;;
25525;SDS011;13424;48.424;11.258;2024-02-14T07:33:05;4.40;;;2.60;;
25525;SDS011;13424;48.424;11.258;2024-02-14T07:35:31;4.50;;;3.00;;
25525;SDS011;13424;48.424;11.258;2024-02-14T07:37:57;4.00;;;2.83;;
25525;SDS011;13424;48.424;11.258;2024-02-14T07:40:23;3.30;;;2.58;;
25525;SDS011;13424;48.424;11.258;2024-02-14T07:42:49;3.83;;;2.42;;
25525;SDS011;13424;48.424;11.258;2024-02-14T07:45:15;3.92;;;2.85;;
25525;SDS011;13424;48.424;11.258;2024-02-14T07:47:42;5.03;;;2.38;;
25525;SDS011;13424;48.424;11.258;2024-02-14T07:50:08;4.53;;;2.45;;
25525;SDS011;13424;48.424;11.258;2024-02-14T07:52:34;3.53;;;2.55;;
25525;SDS011;13424;48.424;11.258;2024-02-14T07:55:01;4.68;;;2.45;;
25525;SDS011;13424;48.424;11.258;2024-02-14T07:57:27;3.08;;;2.15;;
25525;SDS011;13424;48.424;11.258;2024-02-14T07:59:53;5.20;;;2.55;;
25525;SDS011;13424;48.424;11.258;2024-02-14T08:02:19;5.18;;;2.47;;
25525;SDS011;13424;48.424;11.258;2024-02-14T08:04:46;4.57;;;2.30;;
25525;SDS011;13424;48.424;11.258;2024-02-14T08:07:12;6.57;;;2.38;;
25525;SDS011;13424;48.424;11.258;2024-02-14T08:09:38;6.22;;;2.50;;
25525;SDS011;13424;48.424;11.258;2024-02-14T08:12:05;6.50;;;2.88;;
25525;SDS011;13424;48.424;11.258;2024-02-14T08:14:31;8.30;;;2.67;;
25525;SDS011;13424;48.424;11.258;2024-02-14T08:16:57;5.50;;;2.60;;
25525;SDS011;13424;48.424;11.258;2024-02-14T08:19:23;8.43;;;3.08;;
25525;SDS011;13424;48.424;11.258;2024-02-14T08:21:50;6.65;;;2.80;;
25525;SDS011;13424;48.424;11.258;2024-02-14T08:24:16;4.70;;;2.67;;
25525;SDS011;13424;48.424;11.258;2024-02-14T08:26:42;6.30;;;2.80;;
25525;SDS011;13424;48.424;11.258;2024-02-14T08:29:08;7.35;;;3.30;;
25525;SDS011;13424;48.424;11.258;2024-02-14T08:31:36;5.22;;;2.55;;
25525;SDS011;13424;48.424;11.258;2024-02-14T08:34:03;4.88;;;2.70;;
25525;SDS011;13424;48.424;11.258;2024-02-14T08:36:29;3.92;;;2.80;;
25525;SDS011;13424;48.424;11.258;2024-02-14T08:39:01;4.53;;;2.55;;
25525;SDS011;13424;48.424;11.258;2024-02-14T08:41:27;6.82;;;3.13;;
25525;SDS011;13424;48.424;11.258;2024-02-14T08:43:53;6.82;;;2.80;;
25525;SDS011;13424;48.424;11.258;2024-02-14T08:49:54;6.75;;;3.53;;
25525;SDS011;13424;48.424;11.258;2024-02-14T08:52:20;5.25;;;2.95;;
25525;SDS011;13424;48.424;11.258;2024-02-14T08:54:46;4.57;;;3.10;;
25525;SDS011;13424;48.424;11.258;2024-02-14T08:57:12;5.45;;;2.63;;
25525;SDS011;13424;48.424;11.258;2024-02-14T08:59:38;4.00;;;2.35;;
25525;SDS011;13424;48.424;11.258;2024-02-14T09:02:06;4.13;;;2.40;;
25525;SDS011;13424;48.424;11.258;2024-02-14T09:04:32;3.25;;;2.13;;
25525;SDS011;13424;48.424;11.258;2024-02-14T09:06:58;4.93;;;2.40;;
25525;SDS011;13424;48.424;11.258;2024-02-14T09:09:46;3.58;;;2.15;;
25525;SDS011;13424;48.424;11.258;2024-02-14T09:12:13;4.97;;;2.30;;
25525;SDS011;13424;48.424;11.258;2024-02-14T09:14:39;5.82;;;2.63;;
25525;SDS011;13424;48.424;11.258;2024-02-14T09:17:04;6.35;;;2.10;;
25525;SDS011;13424;48.424;11.258;2024-02-14T09:19:31;8.10;;;2.33;;
25525;SDS011;13424;48.424;11.258;2024-02-14T09:21:57;4.97;;;2.58;;
25525;SDS011;13424;48.424;11.258;2024-02-14T09:24:23;8.45;;;2.20;;
25525;SDS011;13424;48.424;11.258;2024-02-14T09:26:49;3.00;;;2.03;;
25525;SDS011;13424;48.424;11.258;2024-02-14T09:29:15;4.70;;;2.00;;
25525;SDS011;13424;48.424;11.258;2024-02-14T09:31:41;3.75;;;2.00;;
25525;SDS011;13424;48.424;11.258;2024-02-14T09:34:13;5.32;;;2.75;;
25525;SDS011;13424;48.424;11.258;2024-02-14T09:36:42;4.00;;;2.35;;
25525;SDS011;13424;48.424;11.258;2024-02-14T09:39:08;4.90;;;1.98;;
25525;SDS011;13424;48.424;11.258;2024-02-14T09:41:37;4.40;;;2.13;;
25525;SDS011;13424;48.424;11.258;2024-02-14T09:44:08;5.85;;;1.80;;
25525;SDS011;13424;48.424;11.258;2024-02-14T09:46:37;2.90;;;2.30;;
25525;SDS011;13424;48.424;11.258;2024-02-14T09:49:04;4.72;;;2.20;;
25525;SDS011;13424;48.424;11.258;2024-02-14T09:51:31;3.38;;;2.20;;
25525;SDS011;13424;48.424;11.258;2024-02-14T09:53:59;4.03;;;2.10;;
25525;SDS011;13424;48.424;11.258;2024-02-14T09:56:28;6.95;;;2.30;;
25525;SDS011;13424;48.424;11.258;2024-02-14T09:58:56;5.13;;;1.90;;
25525;SDS011;13424;48.424;11.258;2024-02-14T10:01:26;5.00;;;2.38;;
25525;SDS011;13424;48.424;11.258;2024-02-14T10:03:55;4.00;;;2.33;;
25525;SDS011;13424;48.424;11.258;2024-02-14T10:06:22;4.03;;;2.25;;
25525;SDS011;13424;48.424;11.258;2024-02-14T10:08:49;3.47;;;2.35;;
25525;SDS011;13424;48.424;11.258;2024-02-14T10:11:19;4.28;;;2.17;;
25525;SDS011;13424;48.424;11.258;2024-02-14T10:13:49;8.07;;;2.40;;
25525;SDS011;13424;48.424;11.258;2024-02-14T10:16:19;3.90;;;2.17;;
25525;SDS011;13424;48.424;11.258;2024-02-14T10:18:45;3.08;;;2.10;;
25525;SDS011;13424;48.424;11.258;2024-02-14T10:21:15;3.55;;;1.95;;
25525;SDS011;13424;48.424;11.258;2024-02-14T10:24:00;4.45;;;2.25;;
25525;SDS011;13424;48.424;11.258;2024-02-14T10:26:26;10.48;;;1.95;;
25525;SDS011;13424;48.424;11.258;2024-02-14T10:28:56;2.78;;;2.03;;
25525;SDS011;13424;48.424;11.258;2024-02-14T10:31:25;5.68;;;2.65;;
25525;SDS011;13424;48.424;11.258;2024-02-14T10:33:53;2.47;;;1.98;;
25525;SDS011;13424;48.424;11.258;2024-02-14T10:36:21;6.20;;;2.30;;
25525;SDS011;13424;48.424;11.258;2024-02-14T10:38:47;3.58;;;2.30;;
25525;SDS011;13424;48.424;11.258;2024-02-14T10:41:16;3.15;;;1.85;;
25525;SDS011;13424;48.424;11.258;2024-02-14T10:43:43;4.72;;;2.15;;
25525;SDS011;13424;48.424;11.258;2024-02-14T10:46:22;2.58;;;2.15;;
25525;SDS011;13424;48.424;11.258;2024-02-14T10:48:58;2.05;;;1.75;;
25525;SDS011;13424;48.424;11.258;2024-02-14T10:51:31;8.15;;;2.47;;
25525;SDS011;13424;48.424;11.258;2024-02-14T10:53:58;2.33;;;2.05;;
25525;SDS011;13424;48.424;11.258;2024-02-14T10:56:31;2.00;;;1.48;;
25525;SDS011;13424;48.424;11.258;2024-02-14T10:58:57;6.57;;;1.90;;
25525;SDS011;13424;48.424;11.258;2024-02-14T11:01:26;4.45;;;1.85;;
25525;SDS011;13424;48.424;11.258;2024-02-14T11:03:57;2.47;;;1.73;;
25525;SDS011;13424;48.424;11.258;2024-02-14T11:06:25;5.53;;;1.70;;
25525;SDS011;13424;48.424;11.258;2024-02-14T11:09:00;2.63;;;1.20;;
25525;SDS011;13424;48.424;11.258;2024-02-14T11:11:35;4.20;;;1.67;;
25525;SDS011;13424;48.424;11.258;2024-02-14T11:14:02;2.63;;;1.40;;
25525;SDS011;13424;48.424;11.258;2024-02-14T11:16:30;4.20;;;1.70;;
25525;SDS011;13424;48.424;11.258;2024-02-14T11:19:11;2.65;;;1.67;;
25525;SDS011;13424;48.424;11.258;2024-02-14T11:21:43;2.28;;;1.30;;
25525;SDS011;13424;48.424;11.258;2024-02-14T11:24:12;3.22;;;1.42;;
25525;SDS011;13424;48.424;11.258;2024-02-14T11:26:50;3.72;;;1.75;;
25525;SDS011;13424;48.424;11.258;2024-02-14T11:29:20;3.25;;;1.65;;
25525;SDS011;13424;48.424;11.258;2024-02-14T11:32:00;3.28;;;1.48;;
25525;SDS011;13424;48.424;11.258;2024-02-14T11:34:28;3.45;;;1.38;;
25525;SDS011;13424;48.424;11.258;2024-02-14T11:36:57;2.35;;;1.40;;
25525;SDS011;13424;48.424;11.258;2024-02-14T11:39:25;1.58;;;1.15;;
25525;SDS011;13424;48.424;11.258;2024-02-14T11:41:51;3.40;;;1.58;;
25525;SDS011;13424;48.424;11.258;2024-02-14T11:44:20;2.47;;;1.40;;
25525;SDS011;13424;48.424;11.258;2024-02-14T11:46:47;2.78;;;1.55;;
25525;SDS011;13424;48.424;11.258;2024-02-14T11:49:13;2.75;;;1.50;;
25525;SDS011;13424;48.424;11.258;2024-02-14T11:51:39;1.42;;;1.23;;
25525;SDS011;13424;48.424;11.258;2024-02-14T11:54:06;2.95;;;1.38;;
25525;SDS011;13424;48.424;11.258;2024-02-14T11:56:34;3.30;;;1.45;;
25525;SDS011;13424;48.424;11.258;2024-02-14T11:59:06;2.97;;;1.50;;
25525;SDS011;13424;48.424;11.258;2024-02-14T12:01:35;1.65;;;1.45;;
25525;SDS011;13424;48.424;11.258;2024-02-14T12:04:07;3.50;;;1.20;;
25525;SDS011;13424;48.424;11.258;2024-02-14T12:06:35;7.88;;;1.77;;
25525;SDS011;13424;48.424;11.258;2024-02-14T12:09:03;1.40;;;1.30;;
25525;SDS011;13424;48.424;11.258;2024-02-14T12:11:31;1.52;;;1.25;;
25525;SDS011;13424;48.424;11.258;2024-02-14T12:14:03;3.97;;;1.60;;
25525;SDS011;13424;48.424;11.258;2024-02-14T12:16:36;3.17;;;1.27;;
25525;SDS011;13424;48.424;11.258;2024-02-14T12:19:08;2.13;;;1.27;;
25525;SDS011;13424;48.424;11.258;2024-02-14T12:21:41;1.90;;;1.40;;
25525;SDS011;13424;48.424;11.258;2024-02-14T12:24:11;2.58;;;1.48;;
25525;SDS011;13424;48.424;11.258;2024-02-14T12:26:40;1.92;;;1.10;;
25525;SDS011;13424;48.424;11.258;2024-02-14T12:29:08;3.15;;;1.55;;
25525;SDS011;13424;48.424;11.258;2024-02-14T12:34:04;1.95;;;1.10;;
25525;SDS011;13424;48.424;11.258;2024-02-14T12:39:51;4.25;;;1.23;;
25525;SDS011;13424;48.424;11.258;2024-02-14T12:42:19;2.88;;;1.40;;
25525;SDS011;13424;48.424;11.258;2024-02-14T12:44:51;1.35;;;1.10;;
25525;SDS011;13424;48.424;11.258;2024-02-14T12:47:19;2.97;;;1.67;;
25525;SDS011;13424;48.424;11.258;2024-02-14T12:49:47;1.10;;;1.00;;
25525;SDS011;13424;48.424;11.258;2024-02-14T12:52:14;1.75;;;1.20;;
25525;SDS011;13424;48.424;11.258;2024-02-14T12:58:44;1.88;;;1.48;;
25525;SDS011;13424;48.424;11.258;2024-02-14T13:01:11;1.42;;;1.33;;
25525;SDS011;13424;48.424;11.258;2024-02-14T13:03:39;2.72;;;1.48;;
25525;SDS011;13424;48.424;11.258;2024-02-14T13:06:05;3.55;;;1.30;;
25525;SDS011;13424;48.424;11.258;2024-02-14T13:08:34;3.28;;;1.55;;
25525;SDS011;13424;48.424;11.258;2024-02-14T13:11:01;2.83;;;1.50;;
25525;SDS011;13424;48.424;11.258;2024-02-14T13:13:27;1.52;;;1.10;;
25525;SDS011;13424;48.424;11.258;2024-02-14T13:15:55;3.90;;;1.05;;
25525;SDS011;13424;48.424;11.258;2024-02-14T13:18:21;4.72;;;1.23;;
25525;SDS011;13424;48.424;11.258;2024-02-14T13:20:47;1.65;;;1.33;;
25525;SDS011;13424;48.424;11.258;2024-02-14T13:23:15;1.90;;;1.40;;
25525;SDS011;13424;48.424;11.258;2024-02-14T13:25:41;2.60;;;1.17;;
25525;SDS011;13424;48.424;11.258;2024-02-14T13:31:59;1.00;;;0.90;;
25525;SDS011;13424;48.424;11.258;2024-02-14T13:34:27;2.15;;;1.30;;
25525;SDS011;13424;48.424;11.258;2024-02-14T13:36:54;1.45;;;1.00;;
25525;SDS011;13424;48.424;11.258;2024-02-14T13:39:56;1.70;;;1.17;;
25525;SDS011;13424;48.424;11.258;2024-02-14T13:42:22;1.20;;;1.10;;
25525;SDS011;13424;48.424;11.258;2024-02-14T13:44:48;4.15;;;1.40;;
25525;SDS011;13424;48.424;11.258;2024-02-14T13:47:17;1.40;;;1.00;;
25525;SDS011;13424;48.424;11.258;2024-02-14T13:49:44;1.88;;;1.33;;
25525;SDS011;13424;48.424;11.258;2024-02-14T13:52:10;0.70;;;0.70;;
25525;SDS011;13424;48.424;11.258;2024-02-14T13:54:37;0.95;;;0.95;;
25525;SDS011;13424;48.424;11.258;2024-02-14T13:57:03;1.45;;;1.30;;
25525;SDS011;13424;48.424;11.258;2024-02-14T13:59:29;1.13;;;1.00;;
25525;SDS011;13424;48.424;11.258;2024-02-14T14:01:55;1.35;;;0.90;;
25525;SDS011;13424;48.424;11.258;2024-02-14T14:07:54;3.58;;;1.15;;
25525;SDS011;13424;48.424;11.258;2024-02-14T14:10:22;3.58;;;1.80;;
25525;SDS011;13424;48.424;11.258;2024-02-14T14:12:50;3.88;;;1.10;;
25525;SDS011;13424;48.424;11.258;2024-02-14T14:15:16;1.02;;;0.90;;
25525;SDS011;13424;48.424;11.258;2024-02-14T14:17:42;1.30;;;1.10;;
25525;SDS011;13424;48.424;11.258;2024-02-14T14:23:42;1.05;;;0.98;;
25525;SDS011;13424;48.424;11.258;2024-02-14T14:26:09;0.88;;;0.88;;
25525;SDS011;13424;48.424;11.258;2024-02-14T14:28:36;1.40;;;1.30;;
25525;SDS011;13424;48.424;11.258;2024-02-14T14:31:02;1.25;;;1.10;;
25525;SDS011;13424;48.424;11.258;2024-02-14T14:33:28;4.00;;;0.90;;
25525;SDS011;13424;48.424;11.258;2024-02-14T14:35:54;1.98;;;1.23;;
25525;SDS011;13424;48.424;11.258;2024-02-14T14:38:20;3.58;;;1.15;;
25525;SDS011;13424;48.424;11.258;2024-02-14T14:40:47;2.33;;;0.88;;
25525;SDS011;13424;48.424;11.258;2024-02-14T14:43:14;1.38;;;1.15;;
25525;SDS011;13424;48.424;11.258;2024-02-14T14:45:41;1.33;;;1.17;;
25525;SDS011;13424;48.424;11.258;2024-02-14T14:48:07;3.72;;;1.15;;
25525;SDS011;13424;48.424;11.258;2024-02-14T14:50:37;2.03;;;1.20;;
25525;SDS011;13424;48.424;11.258;2024-02-14T14:53:04;1.48;;;0.80;;
25525;SDS011;13424;48.424;11.258;2024-02-14T14:55:53;2.60;;;1.23;;
25525;SDS011;13424;48.424;11.258;2024-02-14T14:58:24;1.38;;;0.93;;
25525;SDS011;13424;48.424;11.258;2024-02-14T15:00:53;0.90;;;0.90;;
25525;SDS011;13424;48.424;11.258;2024-02-14T15:03:24;4.82;;;1.27;;
25525;SDS011;13424;48.424;11.258;2024-02-14T15:05:50;1.85;;;1.20;;
25525;SDS011;13424;48.424;11.258;2024-02-14T15:08:17;1.33;;;1.13;;
25525;SDS011;13424;48.424;11.258;2024-02-14T15:10:48;2.75;;;1.52;;
25525;SDS011;13424;48.424;11.258;2024-02-14T15:13:18;2.30;;;1.65;;
25525;SDS011;13424;48.424;11.258;2024-02-14T15:15:44;1.38;;;1.05;;
25525;SDS011;13424;48.424;11.258;2024-02-14T15:18:10;0.90;;;0.90;;
25525;SDS011;13424;48.424;11.258;2024-02-14T15:20:36;2.55;;;1.25;;